createdAt,value
2018-01-14T00:01:01.994Z,0.76
2018-01-14T00:01:56.790Z,0.64
2018-01-14T00:02:57.001Z,0.61
2018-01-14T00:03:57.773Z,0.64
2018-01-14T00:04:57.866Z,0.71
2018-01-14T00:05:58.232Z,0.67
2018-01-14T00:06:58.260Z,0.64
2018-01-14T00:07:57.738Z,0.61
2018-01-14T00:08:58.171Z,0.66
2018-01-14T00:09:58.498Z,0.6
2018-01-14T00:10:58.641Z,0.48
2018-01-14T00:11:58.507Z,0.5
2018-01-14T00:12:58.859Z,0.45
2018-01-14T00:13:59.162Z,0.37
2018-01-14T00:15:00.190Z,0.35
2018-01-14T00:16:00.186Z,0.38
2018-01-14T00:17:00.067Z,0.44
2018-01-14T00:17:59.827Z,0.39
2018-01-14T00:19:00.778Z,0.31
2018-01-14T00:20:00.981Z,0.23
2018-01-14T00:21:00.236Z,0.24
2018-01-14T00:22:00.700Z,0.17
2018-01-14T00:23:00.948Z,0.09
2018-01-14T00:24:00.763Z,0.16
2018-01-14T00:25:01.424Z,0.19
2018-01-14T00:26:00.786Z,0.06
2018-01-14T00:27:01.245Z,-0.09
2018-01-14T00:28:01.370Z,-0.1
2018-01-14T00:29:01.642Z,-0.01
2018-01-14T00:30:02.076Z,-0.19
2018-01-14T00:31:02.147Z,-0.2
2018-01-14T00:32:02.073Z,-0.18
2018-01-14T00:33:02.075Z,-0.25
2018-01-14T00:34:01.761Z,-0.3
2018-01-14T00:35:02.053Z,-0.34
2018-01-14T00:36:02.185Z,-0.4
2018-01-14T00:37:02.187Z,-0.48
2018-01-14T00:38:02.249Z,-0.45
2018-01-14T00:39:02.216Z,-0.52
2018-01-14T00:40:02.301Z,-0.56
2018-01-14T00:41:01.993Z,-0.49
2018-01-14T00:42:02.265Z,-0.49
2018-01-14T00:43:02.437Z,-0.49
2018-01-14T00:44:02.872Z,-0.58
2018-01-14T00:45:02.571Z,-0.62
2018-01-14T00:46:02.523Z,-0.69
2018-01-14T00:47:03.080Z,-0.73
2018-01-14T00:48:04.055Z,-0.77
2018-01-14T00:49:03.286Z,-0.72
2018-01-14T00:50:03.755Z,-0.66
2018-01-14T00:51:04.562Z,-0.72
2018-01-14T00:52:04.907Z,-0.69
2018-01-14T00:53:05.286Z,-0.73
2018-01-14T00:54:04.039Z,-0.79
2018-01-14T00:55:04.837Z,-0.72
2018-01-14T00:56:05.428Z,-0.74
2018-01-14T00:57:04.847Z,-0.72
2018-01-14T00:58:04.965Z,-0.74
2018-01-14T00:59:04.914Z,-0.8
2018-01-14T01:00:19.918Z,-0.73
2018-01-14T01:01:06.394Z,-0.84
2018-01-14T01:02:04.893Z,-0.84
2018-01-14T01:03:06.325Z,-0.92
2018-01-14T01:04:06.372Z,-0.92
2018-01-14T01:05:06.294Z,-0.89
2018-01-14T01:06:05.633Z,-0.8
2018-01-14T01:07:06.224Z,-0.91
2018-01-14T01:08:05.876Z,-0.85
2018-01-14T01:09:06.581Z,-0.92
2018-01-14T01:10:06.442Z,-0.93
2018-01-14T01:11:06.360Z,-0.96
2018-01-14T01:12:06.032Z,-0.99
2018-01-14T01:13:06.521Z,-0.99
2018-01-14T01:14:05.043Z,-0.95
2018-01-14T01:15:05.517Z,-0.96
2018-01-14T01:16:04.975Z,-0.98
2018-01-14T01:17:04.927Z,-0.99
2018-01-14T01:18:06.196Z,-0.96
2018-01-14T01:19:06.238Z,-0.89
2018-01-14T01:20:05.195Z,-0.95
2018-01-14T01:21:06.696Z,-1.06
2018-01-14T01:22:06.245Z,-1.03
2018-01-14T01:23:06.156Z,-1.1
2018-01-14T01:24:05.288Z,-1.01
2018-01-14T01:25:06.141Z,-1.07
2018-01-14T01:26:06.527Z,-1.07
2018-01-14T01:27:04.933Z,-1.07
2018-01-14T01:28:06.454Z,-1.07
2018-01-14T01:29:05.764Z,-1.04
2018-01-14T01:30:05.928Z,-1.04
2018-01-14T01:31:05.641Z,-1.09
2018-01-14T01:32:05.570Z,-1.07
2018-01-14T01:33:05.835Z,-1.1
2018-01-14T01:34:07.628Z,-1.14
2018-01-14T01:35:07.840Z,-1.13
2018-01-14T01:36:07.889Z,-1.24
2018-01-14T01:37:07.225Z,-1.16
2018-01-14T01:38:07.070Z,-1.21
2018-01-14T01:39:08.276Z,-1.17
2018-01-14T01:40:07.391Z,-1.13
2018-01-14T01:41:07.264Z,-1.21
2018-01-14T01:42:06.939Z,-1.24
2018-01-14T01:43:06.939Z,-1.13
2018-01-14T01:44:07.398Z,-1.21
2018-01-14T01:45:07.009Z,-1.11
2018-01-14T01:46:07.584Z,-1.21
2018-01-14T01:47:08.002Z,-1.21
2018-01-14T01:48:07.024Z,-1.21
2018-01-14T01:49:06.804Z,-1.3
2018-01-14T01:50:07.575Z,-1.21
2018-01-14T01:51:07.404Z,-1.3
2018-01-14T01:52:07.058Z,-1.14
2018-01-14T01:53:06.973Z,-1.27
2018-01-14T01:54:07.630Z,-1.31
2018-01-14T01:55:08.501Z,-1.27
2018-01-14T01:56:07.515Z,-1.27
2018-01-14T01:57:07.547Z,-1.31
2018-01-14T01:58:07.517Z,-1.37
2018-01-14T01:59:07.834Z,-1.43
2018-01-14T02:00:37.295Z,-1.5
2018-01-14T02:01:37.240Z,-1.5
2018-01-14T02:02:23.008Z,-1.5
2018-01-14T02:03:23.901Z,-1.45
2018-01-14T02:04:23.576Z,-1.42
2018-01-14T02:05:22.650Z,-1.43
2018-01-14T02:06:23.905Z,-1.45
2018-01-14T02:07:23.588Z,-1.38
2018-01-14T02:08:23.994Z,-1.45
2018-01-14T02:09:23.939Z,-1.34
2018-01-14T02:10:23.023Z,-1.24
2018-01-14T02:11:23.490Z,-1.31
2018-01-14T02:12:22.946Z,-1.32
2018-01-14T02:13:22.667Z,-1.22
2018-01-14T02:14:22.776Z,-1.28
2018-01-14T02:15:24.497Z,-1.32
2018-01-14T02:16:23.321Z,-1.22
2018-01-14T02:17:24.115Z,-1.16
2018-01-14T02:18:23.791Z,-1.16
2018-01-14T02:19:23.702Z,-1.13
2018-01-14T02:20:24.113Z,-1.19
2018-01-14T02:21:23.684Z,-1.09
2018-01-14T02:22:24.387Z,-1.07
2018-01-14T02:23:24.036Z,-1.04
2018-01-14T02:24:23.810Z,-1.01
2018-01-14T02:25:24.226Z,-0.96
2018-01-14T02:26:25.099Z,-0.84
2018-01-14T02:27:24.871Z,-0.85
2018-01-14T02:28:24.349Z,-0.82
2018-01-14T02:29:24.253Z,-0.72
2018-01-14T02:30:24.641Z,-0.73
2018-01-14T02:31:24.543Z,-0.7
2018-01-14T02:32:24.462Z,-0.62
2018-01-14T02:33:24.328Z,-0.69
2018-01-14T02:34:24.215Z,-0.62
2018-01-14T02:35:24.487Z,-0.61
2018-01-14T02:36:24.635Z,-0.61
2018-01-14T02:37:24.477Z,-0.52
2018-01-14T02:38:24.708Z,-0.56
2018-01-14T02:39:25.004Z,-0.52
2018-01-14T02:40:24.388Z,-0.54
2018-01-14T02:41:24.759Z,-0.49
2018-01-14T02:42:25.622Z,-0.56
2018-01-14T02:43:25.651Z,-0.52
2018-01-14T02:44:24.927Z,-0.52
2018-01-14T02:45:27.717Z,-0.54
2018-01-14T02:46:27.423Z,-0.46
2018-01-14T02:47:26.190Z,-0.48
2018-01-14T02:48:25.652Z,-0.45
2018-01-14T02:49:26.017Z,-0.4
2018-01-14T02:50:26.040Z,-0.55
2018-01-14T02:51:26.370Z,-0.41
2018-01-14T02:52:26.777Z,-0.4
2018-01-14T02:53:26.984Z,-0.54
2018-01-14T02:54:26.507Z,-0.51
2018-01-14T02:55:26.192Z,-0.51
2018-01-14T02:56:26.840Z,-0.56
2018-01-14T02:57:26.984Z,-0.52
2018-01-14T02:58:27.323Z,-0.51
2018-01-14T02:59:27.146Z,-0.51
2018-01-14T03:00:26.922Z,-0.56
2018-01-14T03:01:27.054Z,-0.52
2018-01-14T03:02:27.816Z,-0.54
2018-01-14T03:03:27.545Z,-0.41
2018-01-14T03:04:27.729Z,-0.52
2018-01-14T03:05:28.189Z,-0.43
2018-01-14T03:06:28.038Z,-0.4
2018-01-14T03:07:27.728Z,-0.4
2018-01-14T03:08:27.712Z,-0.45
2018-01-14T03:09:28.184Z,-0.41
2018-01-14T03:10:28.214Z,-0.41
2018-01-14T03:11:28.466Z,-0.34
2018-01-14T03:12:27.961Z,-0.3
2018-01-14T03:13:29.615Z,-0.33
2018-01-14T03:14:28.631Z,-0.31
2018-01-14T03:15:29.049Z,-0.33
2018-01-14T03:16:29.456Z,-0.28
2018-01-14T03:17:29.601Z,-0.34
2018-01-14T03:18:29.359Z,-0.34
2018-01-14T03:19:29.632Z,-0.34
2018-01-14T03:20:29.421Z,-0.38
2018-01-14T03:21:30.703Z,-0.3
2018-01-14T03:22:29.879Z,-0.28
2018-01-14T03:23:30.702Z,-0.36
2018-01-14T03:24:30.195Z,-0.31
2018-01-14T03:25:30.917Z,-0.27
2018-01-14T03:26:30.403Z,-0.22
2018-01-14T03:27:30.797Z,-0.27
2018-01-14T03:28:31.399Z,-0.31
2018-01-14T03:29:30.844Z,-0.25
2018-01-14T03:30:31.251Z,-0.27
2018-01-14T03:31:31.241Z,-0.25
2018-01-14T03:32:31.234Z,-0.22
2018-01-14T03:33:31.905Z,-0.2
2018-01-14T03:34:32.468Z,-0.31
2018-01-14T03:35:31.906Z,-0.2
2018-01-14T03:36:32.032Z,-0.25
2018-01-14T03:37:31.931Z,-0.25
2018-01-14T03:38:32.518Z,-0.2
2018-01-14T03:39:32.448Z,-0.23
2018-01-14T03:40:32.446Z,-0.31
2018-01-14T03:41:32.256Z,-0.27
2018-01-14T03:42:33.160Z,-0.28
2018-01-14T03:43:32.642Z,-0.25
2018-01-14T03:44:33.604Z,-0.28
2018-01-14T03:45:33.718Z,-0.27
2018-01-14T03:46:32.706Z,-0.2
2018-01-14T03:47:33.002Z,-0.2
2018-01-14T03:48:35.447Z,-0.3
2018-01-14T03:49:34.777Z,-0.3
2018-01-14T03:50:35.381Z,-0.28
2018-01-14T03:51:35.262Z,-0.3
2018-01-14T03:52:35.411Z,-0.27
2018-01-14T03:53:33.995Z,-0.3
2018-01-14T03:54:34.391Z,-0.3
2018-01-14T03:55:34.194Z,-0.33
2018-01-14T03:56:34.235Z,-0.34
2018-01-14T03:57:35.082Z,-0.37
2018-01-14T03:58:35.340Z,-0.36
2018-01-14T03:59:35.447Z,-0.51
2018-01-14T04:00:35.469Z,-0.41
2018-01-14T04:01:35.074Z,-0.52
2018-01-14T04:02:35.512Z,-0.48
2018-01-14T04:03:36.784Z,-0.55
2018-01-14T04:04:36.350Z,-0.54
2018-01-14T04:05:36.144Z,-0.49
2018-01-14T04:06:36.185Z,-0.55
2018-01-14T04:07:36.007Z,-0.55
2018-01-14T04:08:35.758Z,-0.54
2018-01-14T04:09:35.615Z,-0.56
2018-01-14T04:10:36.947Z,-0.61
2018-01-14T04:11:36.096Z,-0.61
2018-01-14T04:12:36.112Z,-0.66
2018-01-14T04:13:36.798Z,-0.62
2018-01-14T04:14:37.595Z,-0.56
2018-01-14T04:15:37.508Z,-0.59
2018-01-14T04:16:37.383Z,-0.69
2018-01-14T04:17:37.852Z,-0.69
2018-01-14T04:18:36.600Z,-0.73
2018-01-14T04:19:37.713Z,-0.8
2018-01-14T04:20:37.301Z,-0.79
2018-01-14T04:21:36.653Z,-0.95
2018-01-14T04:22:36.640Z,-0.93
2018-01-14T04:23:36.366Z,-0.96
2018-01-14T04:24:37.584Z,-0.96
2018-01-14T04:25:37.538Z,-0.99
2018-01-14T04:26:37.017Z,-1.03
2018-01-14T04:27:37.792Z,-1.01
2018-01-14T04:28:37.063Z,-1.1
2018-01-14T04:29:37.909Z,-1.19
2018-01-14T04:30:37.871Z,-1.07
2018-01-14T04:31:38.228Z,-1.13
2018-01-14T04:32:37.591Z,-1.21
2018-01-14T04:33:37.836Z,-1.27
2018-01-14T04:34:38.454Z,-1.21
2018-01-14T04:35:38.939Z,-1.24
2018-01-14T04:36:38.316Z,-1.28
2018-01-14T04:37:37.514Z,-1.38
2018-01-14T04:38:38.233Z,-1.45
2018-01-14T04:39:38.118Z,-1.49
2018-01-14T04:40:39.388Z,-1.53
2018-01-14T04:41:38.504Z,-1.56
2018-01-14T04:42:38.012Z,-1.55
2018-01-14T04:43:38.174Z,-1.52
2018-01-14T04:44:38.136Z,-1.52
2018-01-14T04:45:38.002Z,-1.63
2018-01-14T04:46:37.876Z,-1.68
2018-01-14T04:47:37.957Z,-1.64
2018-01-14T04:48:38.111Z,-1.71
2018-01-14T04:49:38.745Z,-1.71
2018-01-14T04:50:38.239Z,-1.78
2018-01-14T04:51:38.614Z,-1.78
2018-01-14T04:52:38.790Z,-1.82
2018-01-14T04:53:38.537Z,-1.88
2018-01-14T04:54:39.527Z,-1.92
2018-01-14T04:55:39.232Z,-1.88
2018-01-14T04:56:39.305Z,-1.88
2018-01-14T04:57:40.266Z,-1.84
2018-01-14T04:58:39.892Z,-1.79
2018-01-14T04:59:40.800Z,-1.85
2018-01-14T05:00:42.288Z,-1.82
2018-01-14T05:01:42.392Z,-1.82
2018-01-14T05:02:57.404Z,-1.94
2018-01-14T05:03:54.071Z,-1.89
2018-01-14T05:04:53.812Z,-1.99
2018-01-14T05:05:52.837Z,-1.92
2018-01-14T05:06:52.403Z,-1.97
2018-01-14T05:07:53.133Z,-2.05
2018-01-14T05:08:53.557Z,-1.94
2018-01-14T05:09:53.769Z,-2.05
2018-01-14T05:10:54.786Z,-1.97
2018-01-14T05:11:54.256Z,-2
2018-01-14T05:12:55.546Z,-1.94
2018-01-14T05:13:54.326Z,-2.02
2018-01-14T05:14:54.038Z,-2.03
2018-01-14T05:15:54.598Z,-2.14
2018-01-14T05:16:54.649Z,-2.05
2018-01-14T05:17:54.777Z,-2.03
2018-01-14T05:18:54.162Z,-2.02
2018-01-14T05:19:55.043Z,-1.96
2018-01-14T05:20:55.638Z,-2.02
2018-01-14T05:21:55.646Z,-2.02
2018-01-14T05:22:55.083Z,-2.1
2018-01-14T05:23:54.725Z,-2.02
2018-01-14T05:24:55.902Z,-2.02
2018-01-14T05:25:56.842Z,-2.03
2018-01-14T05:26:55.612Z,-2.05
2018-01-14T05:27:55.410Z,-2.02
2018-01-14T05:28:55.123Z,-2.03
2018-01-14T05:29:55.097Z,-2.1
2018-01-14T05:30:55.426Z,-2.03
2018-01-14T05:31:55.851Z,-2.1
2018-01-14T05:32:56.545Z,-2
2018-01-14T05:33:57.390Z,-2.06
2018-01-14T05:34:57.468Z,-2
2018-01-14T05:35:57.629Z,-1.97
2018-01-14T05:36:58.080Z,-2.02
2018-01-14T05:37:57.217Z,-1.97
2018-01-14T05:38:57.688Z,-2.06
2018-01-14T05:39:56.946Z,-2.15
2018-01-14T05:40:56.465Z,-2.18
2018-01-14T05:41:56.853Z,-2.2
2018-01-14T05:42:56.884Z,-2.15
2018-01-14T05:43:57.080Z,-2.12
2018-01-14T05:44:56.805Z,-2.18
2018-01-14T05:45:57.193Z,-2.09
2018-01-14T05:46:57.378Z,-2.15
2018-01-14T05:47:58.278Z,-2.1
2018-01-14T05:48:57.446Z,-2.09
2018-01-14T05:49:57.265Z,-2.17
2018-01-14T05:50:57.110Z,-2.12
2018-01-14T05:51:57.670Z,-2.17
2018-01-14T05:52:57.955Z,-2.1
2018-01-14T05:53:58.216Z,-2.15
2018-01-14T05:54:57.976Z,-2.14
2018-01-14T05:55:58.091Z,-2.18
2018-01-14T05:56:57.800Z,-2.09
2018-01-14T05:57:57.940Z,-2.12
2018-01-14T05:58:58.369Z,-2.09
2018-01-14T05:59:58.440Z,-2.2
2018-01-14T06:00:58.120Z,-2.21
2018-01-14T06:01:58.695Z,-2.23
2018-01-14T06:02:58.856Z,-2.27
2018-01-14T06:03:58.721Z,-2.18
2018-01-14T06:04:58.727Z,-2.24
2018-01-14T06:05:58.218Z,-2.34
2018-01-14T06:06:58.775Z,-2.28
2018-01-14T06:07:59.209Z,-2.23
2018-01-14T06:08:59.291Z,-2.21
2018-01-14T06:09:58.967Z,-2.27
2018-01-14T06:10:58.946Z,-2.24
2018-01-14T06:11:59.859Z,-2.3
2018-01-14T06:13:00.034Z,-2.4
2018-01-14T06:13:59.358Z,-2.36
2018-01-14T06:14:59.829Z,-2.34
2018-01-14T06:16:00.853Z,-2.3
2018-01-14T06:16:59.785Z,-2.34
2018-01-14T06:17:59.632Z,-2.34
2018-01-14T06:18:59.624Z,-2.42
2018-01-14T06:20:01.099Z,-2.3
2018-01-14T06:20:59.828Z,-2.3
2018-01-14T06:22:00.128Z,-2.32
2018-01-14T06:22:59.848Z,-2.44
2018-01-14T06:24:00.195Z,-2.32
2018-01-14T06:25:01.183Z,-2.32
2018-01-14T06:26:00.246Z,-2.4
2018-01-14T06:27:00.990Z,-2.47
2018-01-14T06:28:00.477Z,-2.4
2018-01-14T06:29:00.031Z,-2.43
2018-01-14T06:29:59.774Z,-2.44
2018-01-14T06:30:59.994Z,-2.49
2018-01-14T06:31:59.887Z,-2.49
2018-01-14T06:33:00.462Z,-2.37
2018-01-14T06:34:01.079Z,-2.46
2018-01-14T06:35:01.522Z,-2.36
2018-01-14T06:36:01.134Z,-2.32
2018-01-14T06:37:00.588Z,-2.4
2018-01-14T06:38:01.144Z,-2.39
2018-01-14T06:39:00.930Z,-2.3
2018-01-14T06:40:01.353Z,-2.39
2018-01-14T06:41:01.432Z,-2.47
2018-01-14T06:42:01.839Z,-2.53
2018-01-14T06:43:01.841Z,-2.49
2018-01-14T06:44:01.555Z,-2.39
2018-01-14T06:45:01.567Z,-2.46
2018-01-14T06:46:01.734Z,-2.47
2018-01-14T06:47:01.912Z,-2.42
2018-01-14T06:48:01.830Z,-2.47
2018-01-14T06:49:02.468Z,-2.44
2018-01-14T06:50:02.172Z,-2.53
2018-01-14T06:51:02.190Z,-2.57
2018-01-14T06:52:03.083Z,-2.57
2018-01-14T06:53:02.252Z,-2.42
2018-01-14T06:54:02.804Z,-2.53
2018-01-14T06:55:03.641Z,-2.47
2018-01-14T06:56:02.924Z,-2.53
2018-01-14T06:57:02.861Z,-2.42
2018-01-14T06:58:04.188Z,-2.44
2018-01-14T06:59:04.590Z,-2.54
2018-01-14T07:01:03.272Z,-2.53
2018-01-14T07:02:04.579Z,-2.58
2018-01-14T07:03:03.837Z,-2.54
2018-01-14T07:04:04.488Z,-2.57
2018-01-14T07:05:04.303Z,-2.6
2018-01-14T07:06:04.402Z,-2.58
2018-01-14T07:07:04.567Z,-2.61
2018-01-14T07:08:05.401Z,-2.6
2018-01-14T07:09:04.834Z,-2.61
2018-01-14T07:10:05.146Z,-2.54
2018-01-14T07:11:05.530Z,-2.53
2018-01-14T07:12:05.126Z,-2.5
2018-01-14T07:13:05.128Z,-2.49
2018-01-14T07:14:05.164Z,-2.55
2018-01-14T07:15:05.421Z,-2.54
2018-01-14T07:16:04.903Z,-2.57
2018-01-14T07:17:04.949Z,-2.53
2018-01-14T07:18:05.337Z,-2.49
2018-01-14T07:19:05.400Z,-2.43
2018-01-14T07:20:05.241Z,-2.53
2018-01-14T07:21:06.053Z,-2.47
2018-01-14T07:22:06.260Z,-2.49
2018-01-14T07:23:06.642Z,-2.5
2018-01-14T07:24:06.274Z,-2.5
2018-01-14T07:25:06.716Z,-2.44
2018-01-14T07:26:05.829Z,-2.47
2018-01-14T07:27:05.883Z,-2.5
2018-01-14T07:28:06.111Z,-2.46
2018-01-14T07:29:06.580Z,-2.46
2018-01-14T07:30:06.859Z,-2.43
2018-01-14T07:31:06.850Z,-2.49
2018-01-14T07:32:07.364Z,-2.49
2018-01-14T07:33:06.780Z,-2.43
2018-01-14T07:34:07.467Z,-2.49
2018-01-14T07:35:07.507Z,-2.46
2018-01-14T07:36:07.903Z,-2.5
2018-01-14T07:37:07.620Z,-2.46
2018-01-14T07:38:07.242Z,-2.53
2018-01-14T07:39:07.613Z,-2.36
2018-01-14T07:40:08.131Z,-2.39
2018-01-14T07:41:08.974Z,-2.32
2018-01-14T07:42:09.143Z,-2.32
2018-01-14T07:43:07.793Z,-2.3
2018-01-14T07:44:22.979Z,-2.34
2018-01-14T07:45:07.693Z,-2.37
2018-01-14T07:46:07.714Z,-2.25
2018-01-14T07:47:07.993Z,-2.28
2018-01-14T07:48:07.779Z,-2.32
2018-01-14T07:49:08.366Z,-2.36
2018-01-14T07:50:07.480Z,-2.34
2018-01-14T07:51:07.868Z,-2.39
2018-01-14T07:52:07.664Z,-2.32
2018-01-14T07:53:07.641Z,-2.32
2018-01-14T07:54:08.644Z,-2.27
2018-01-14T07:55:08.441Z,-2.25
2018-01-14T07:56:08.410Z,-2.2
2018-01-14T07:57:08.841Z,-2.27
2018-01-14T07:58:09.874Z,-2.15
2018-01-14T07:59:09.499Z,-2.14
2018-01-14T08:00:24.734Z,-2.17
2018-01-14T08:01:24.769Z,-2.24
2018-01-14T08:02:24.824Z,-2.2
2018-01-14T08:03:24.790Z,-2.14
2018-01-14T08:04:25.378Z,-2.15
2018-01-14T08:05:25.164Z,-2.14
2018-01-14T08:06:25.448Z,-2.2
2018-01-14T08:07:25.256Z,-2.07
2018-01-14T08:08:25.257Z,-2.09
2018-01-14T08:09:26.107Z,-2
2018-01-14T08:10:26.155Z,-2.09
2018-01-14T08:11:26.742Z,-1.99
2018-01-14T08:12:26.414Z,-2
2018-01-14T08:13:25.921Z,-2.07
2018-01-14T08:14:26.929Z,-2
2018-01-14T08:15:25.986Z,-1.97
2018-01-14T08:16:25.249Z,-2.02
2018-01-14T08:17:25.376Z,-1.94
2018-01-14T08:18:25.949Z,-1.94
2018-01-14T08:19:26.343Z,-2.02
2018-01-14T08:20:27.036Z,-1.99
2018-01-14T08:21:27.380Z,-1.92
2018-01-14T08:22:26.368Z,-1.99
2018-01-14T08:23:26.198Z,-1.89
2018-01-14T08:24:26.366Z,-1.82
2018-01-14T08:25:27.045Z,-1.81
2018-01-14T08:26:27.651Z,-1.82
2018-01-14T08:27:27.249Z,-1.86
2018-01-14T08:28:27.740Z,-1.73
2018-01-14T08:29:27.110Z,-1.71
2018-01-14T08:30:27.154Z,-1.7
2018-01-14T08:31:27.360Z,-1.64
2018-01-14T08:32:27.303Z,-1.7
2018-01-14T08:33:27.648Z,-1.6
2018-01-14T08:34:27.306Z,-1.66
2018-01-14T08:35:27.625Z,-1.49
2018-01-14T08:36:27.709Z,-1.52
2018-01-14T08:37:28.048Z,-1.53
2018-01-14T08:38:27.500Z,-1.48
2018-01-14T08:39:28.049Z,-1.52
2018-01-14T08:40:27.806Z,-1.48
2018-01-14T08:41:29.298Z,-1.5
2018-01-14T08:42:28.382Z,-1.48
2018-01-14T08:43:28.178Z,-1.42
2018-01-14T08:44:28.698Z,-1.43
2018-01-14T08:45:28.864Z,-1.43
2018-01-14T08:46:28.662Z,-1.27
2018-01-14T08:47:28.788Z,-1.3
2018-01-14T08:48:28.864Z,-1.24
2018-01-14T08:49:28.942Z,-1.22
2018-01-14T08:50:30.020Z,-1.22
2018-01-14T08:51:29.450Z,-1.21
2018-01-14T08:52:29.866Z,-1.17
2018-01-14T08:53:29.250Z,-1.17
2018-01-14T08:54:29.307Z,-1.17
2018-01-14T08:55:29.683Z,-1.16
2018-01-14T08:56:29.525Z,-1.04
2018-01-14T08:57:29.163Z,-1.19
2018-01-14T08:58:29.535Z,-1.03
2018-01-14T08:59:29.679Z,-1.07
2018-01-14T09:00:30.035Z,-1.01
2018-01-14T09:01:30.096Z,-0.99
2018-01-14T09:02:30.226Z,-0.96
2018-01-14T09:03:30.372Z,-0.84
2018-01-14T09:04:30.122Z,-0.82
2018-01-14T09:05:30.426Z,-0.73
2018-01-14T09:06:30.336Z,-0.67
2018-01-14T09:07:30.286Z,-0.51
2018-01-14T09:08:30.630Z,-0.2
2018-01-14T09:09:45.060Z,0.28
2018-01-14T09:10:45.060Z,0.82
2018-01-14T09:11:45.153Z,1.42
2018-01-14T09:12:45.567Z,2.11
2018-01-14T09:13:45.723Z,2.52
2018-01-14T09:14:46.201Z,2.99
2018-01-14T09:15:46.095Z,3.37
2018-01-14T09:16:46.077Z,3.51
2018-01-14T09:17:46.236Z,3.53
2018-01-14T09:18:46.237Z,3.46
2018-01-14T09:19:46.378Z,3.54
2018-01-14T09:20:46.875Z,3.34
2018-01-14T09:21:47.160Z,3.32
2018-01-14T09:22:47.273Z,3.29
2018-01-14T09:23:47.291Z,3.48
2018-01-14T09:24:46.644Z,3.64
2018-01-14T09:25:47.019Z,3.85
2018-01-14T09:26:47.261Z,3.97
2018-01-14T09:27:47.588Z,4.18
2018-01-14T09:28:47.621Z,4.47
2018-01-14T09:29:48.121Z,4.57
2018-01-14T09:30:48.083Z,4.6
2018-01-14T09:31:48.571Z,4.42
2018-01-14T09:32:48.130Z,4.48
2018-01-14T09:33:48.002Z,4.57
2018-01-14T09:34:48.011Z,4.38
2018-01-14T09:35:48.376Z,4.53
2018-01-14T09:36:48.139Z,4.35
2018-01-14T09:37:47.890Z,4.29
2018-01-14T09:38:48.324Z,4.36
2018-01-14T09:39:48.221Z,4.36
2018-01-14T09:40:48.331Z,4.28
2018-01-14T09:41:48.554Z,4.3
2018-01-14T09:42:47.954Z,4.57
2018-01-14T09:43:48.021Z,4.57
2018-01-14T09:44:48.863Z,4.61
2018-01-14T09:45:48.347Z,4.75
2018-01-14T09:46:48.963Z,4.85
2018-01-14T09:47:49.126Z,4.87
2018-01-14T09:48:49.078Z,4.64
2018-01-14T09:49:49.204Z,4.21
2018-01-14T09:50:48.776Z,3.97
2018-01-14T09:51:49.621Z,4.11
2018-01-14T09:53:04.493Z,4.35
2018-01-14T09:53:49.962Z,4.58
2018-01-14T09:54:49.400Z,4.9
2018-01-14T09:55:49.891Z,5.05
2018-01-14T09:56:50.057Z,5.09
2018-01-14T09:57:50.138Z,5.23
2018-01-14T09:58:49.654Z,5.05
2018-01-14T09:59:49.789Z,4.87
2018-01-14T10:00:50.356Z,4.74
2018-01-14T10:01:50.242Z,4.66
2018-01-14T10:04:04.120Z,4.57
2018-01-14T10:04:49.542Z,4.6
2018-01-14T10:05:49.480Z,4.6
2018-01-14T10:06:50.211Z,4.48
2018-01-14T10:07:49.998Z,4.56
2018-01-14T10:08:50.235Z,4.72
2018-01-14T10:09:49.875Z,4.76
2018-01-14T10:10:50.508Z,4.66
2018-01-14T10:11:50.286Z,4.64
2018-01-14T10:12:50.245Z,4.51
2018-01-14T10:13:51.105Z,4.78
2018-01-14T10:14:51.507Z,4.88
2018-01-14T10:15:51.087Z,5.05
2018-01-14T10:16:51.122Z,5.18
2018-01-14T10:17:51.017Z,5.28
2018-01-14T10:18:50.519Z,5.26
2018-01-14T10:19:51.087Z,4.94
2018-01-14T10:20:51.506Z,5.08
2018-01-14T10:21:51.588Z,5.12
2018-01-14T10:22:51.606Z,5.33
2018-01-14T10:23:51.365Z,5.27
2018-01-14T10:24:51.581Z,5.28
2018-01-14T10:25:51.963Z,5.33
2018-01-14T10:26:52.125Z,5.15
2018-01-14T10:27:52.662Z,5.15
2018-01-14T10:28:52.505Z,5.51
2018-01-14T10:29:52.598Z,5.64
2018-01-14T10:30:52.814Z,6
2018-01-14T10:31:52.582Z,6.58
2018-01-14T10:32:53.226Z,7.05
2018-01-14T10:33:53.475Z,7.39
2018-01-14T10:34:53.955Z,7.59
2018-01-14T10:35:53.407Z,7.73
2018-01-14T10:36:53.411Z,7.52
2018-01-14T10:37:53.512Z,7.31
2018-01-14T10:38:52.700Z,7.03
2018-01-14T10:39:52.885Z,6.52
2018-01-14T10:40:52.886Z,5.8
2018-01-14T10:41:53.240Z,5.1
2018-01-14T10:42:53.244Z,4.79
2018-01-14T10:43:53.330Z,4.84
2018-01-14T10:44:53.240Z,4.72
2018-01-14T10:45:53.469Z,4.72
2018-01-14T10:46:53.700Z,4.51
2018-01-14T10:47:53.818Z,4.4
2018-01-14T10:48:53.863Z,4.78
2018-01-14T10:49:54.127Z,5.21
2018-01-14T10:50:54.135Z,5.55
2018-01-14T10:51:54.106Z,5.41
2018-01-14T10:52:54.426Z,5.55
2018-01-14T10:53:54.325Z,5.63
2018-01-14T10:54:54.454Z,5.81
2018-01-14T10:55:54.778Z,6.13
2018-01-14T10:56:54.575Z,6.52
2018-01-14T10:57:54.733Z,6.9
2018-01-14T10:58:54.908Z,7.04
2018-01-14T10:59:55.444Z,7.03
2018-01-14T11:00:54.646Z,6.54
2018-01-14T11:01:55.378Z,6.65
2018-01-14T11:02:55.143Z,6.37
2018-01-14T11:03:55.146Z,5.82
2018-01-14T11:04:55.212Z,5.39
2018-01-14T11:05:55.652Z,5.59
2018-01-14T11:06:55.392Z,5.7
2018-01-14T11:07:56.865Z,6.07
2018-01-14T11:08:56.776Z,6
2018-01-14T11:09:57.178Z,6.15
2018-01-14T11:10:57.731Z,6.17
2018-01-14T11:11:56.741Z,6.25
2018-01-14T11:12:55.921Z,6.76
2018-01-14T11:13:56.276Z,6.86
2018-01-14T11:14:56.773Z,6.85
2018-01-14T11:15:56.137Z,6.85
2018-01-14T11:16:56.141Z,6.62
2018-01-14T11:17:56.129Z,6.46
2018-01-14T11:18:56.521Z,6.37
2018-01-14T11:19:57.022Z,6.26
2018-01-14T11:20:56.983Z,6.55
2018-01-14T11:21:58.046Z,6.43
2018-01-14T11:22:56.681Z,6.65
2018-01-14T11:23:57.242Z,6.88
2018-01-14T11:24:57.587Z,7.01
2018-01-14T11:25:57.575Z,7.09
2018-01-14T11:26:57.327Z,7.12
2018-01-14T11:27:57.590Z,7.29
2018-01-14T11:28:57.381Z,7.55
2018-01-14T11:29:57.667Z,7.85
2018-01-14T11:30:57.438Z,8.03
2018-01-14T11:31:57.740Z,7.74
2018-01-14T11:32:57.420Z,7.49
2018-01-14T11:33:57.755Z,7.08
2018-01-14T11:34:57.279Z,7.04
2018-01-14T11:35:57.255Z,7.21
2018-01-14T11:36:57.311Z,7.03
2018-01-14T11:37:57.961Z,6.78
2018-01-14T11:38:58.292Z,6.65
2018-01-14T11:40:00.336Z,6.83
2018-01-14T11:40:59.825Z,6.64
2018-01-14T11:41:59.382Z,6.57
2018-01-14T11:42:59.143Z,6.37
2018-01-14T11:44:00.315Z,6.28
2018-01-14T11:45:00.326Z,6.15
2018-01-14T11:45:59.487Z,6.1
2018-01-14T11:46:59.635Z,5.85
2018-01-14T11:47:59.529Z,5.8
2018-01-14T11:48:59.534Z,5.99
2018-01-14T11:50:01.496Z,6.03
2018-01-14T11:51:01.684Z,5.8
2018-01-14T11:52:01.101Z,5.87
2018-01-14T11:53:00.185Z,5.59
2018-01-14T11:54:00.454Z,5.64
2018-01-14T11:55:00.334Z,5.39
2018-01-14T11:56:00.333Z,5.44
2018-01-14T11:57:00.609Z,5.02
2018-01-14T11:58:00.817Z,4.87
2018-01-14T11:59:00.735Z,4.51
2018-01-14T12:01:00.851Z,3.93
2018-01-14T12:02:01.141Z,4.14
2018-01-14T12:03:01.514Z,4.17
2018-01-14T12:04:02.624Z,4.36
2018-01-14T12:05:02.675Z,4.3
2018-01-14T12:06:02.481Z,4.35
2018-01-14T12:07:01.558Z,4.51
2018-01-14T12:08:02.312Z,4.46
2018-01-14T12:09:02.443Z,4.2
2018-01-14T12:10:02.512Z,4.17
2018-01-14T12:11:02.651Z,4.07
2018-01-14T12:12:03.065Z,3.97
2018-01-14T12:13:02.362Z,3.93
2018-01-14T12:14:02.414Z,3.72
2018-01-14T12:15:02.741Z,3.42
2018-01-14T12:16:02.939Z,2.99
2018-01-14T12:17:02.250Z,2.77
2018-01-14T12:18:01.588Z,2.41
2018-01-14T12:19:02.885Z,2.13
2018-01-14T12:20:02.005Z,2.02
2018-01-14T12:21:02.964Z,1.83
2018-01-14T12:22:03.666Z,1.74
2018-01-14T12:23:03.296Z,1.57
2018-01-14T12:24:02.974Z,1.58
2018-01-14T12:25:03.386Z,1.47
2018-01-14T12:26:05.013Z,1.6
2018-01-14T12:27:04.076Z,1.68
2018-01-14T12:28:03.952Z,1.72
2018-01-14T12:29:04.607Z,1.78
2018-01-14T12:30:04.176Z,1.71
2018-01-14T12:31:04.582Z,1.68
2018-01-14T12:32:04.697Z,1.54
2018-01-14T12:33:04.634Z,1.6
2018-01-14T12:34:04.824Z,1.58
2018-01-14T12:35:04.769Z,1.42
2018-01-14T12:36:05.009Z,1.39
2018-01-14T12:37:04.967Z,1.46
2018-01-14T12:38:04.526Z,1.35
2018-01-14T12:39:04.836Z,1.24
2018-01-14T12:40:05.802Z,1.28
2018-01-14T12:41:05.483Z,1.2
2018-01-14T12:42:05.460Z,1.21
2018-01-14T12:43:05.934Z,1.11
2018-01-14T12:44:06.330Z,1.15
2018-01-14T12:45:07.019Z,1.17
2018-01-14T12:46:06.838Z,1.24
2018-01-14T12:47:06.775Z,1.2
2018-01-14T12:48:06.534Z,1.15
2018-01-14T12:49:07.161Z,1.22
2018-01-14T12:50:07.218Z,1.3
2018-01-14T12:51:06.911Z,1.21
2018-01-14T12:52:07.208Z,1.24
2018-01-14T12:53:07.027Z,1.29
2018-01-14T12:54:06.721Z,1.32
2018-01-14T12:55:08.012Z,1.28
2018-01-14T12:56:07.712Z,1.3
2018-01-14T12:57:07.666Z,1.17
2018-01-14T12:58:08.271Z,1.11
2018-01-14T12:59:08.252Z,1.18
2018-01-14T13:00:22.912Z,1.2
2018-01-14T13:01:09.434Z,1.17
2018-01-14T13:02:08.194Z,1.2
2018-01-14T13:03:09.151Z,1.17
2018-01-14T13:04:08.489Z,1.08
2018-01-14T13:05:08.832Z,1.1
2018-01-14T13:06:23.877Z,1.02
2018-01-14T13:07:09.329Z,1.02
2018-01-14T13:08:08.343Z,0.93
2018-01-14T13:09:09.572Z,0.93
2018-01-14T13:10:09.183Z,0.92